Toby Gray

Jefe de ojeadores - Auckland FC
17 Jul 2027
Sábado
Continuar

Personalidad

Adaptabilidad (17) Ambición (5) Controversia (4) Lealtad (5) Presión (18) Profesionalismo (15) Deportividad (11) Temperamento (12)

Perfil

Estilo de dirección Democrático
Licencia Continental A
Determinación 5
Gestión de personas 7
Motivación 8
Disciplina 5
Satisfacción laboral
62%
Fatiga
0%
Cargo Jefe de ojeadores
Salario 47.3K p/s
Contrato 14.03.2029

Rendimiento

Comportamiento Bueno
Efectividad del entrenamiento
12%
Desarrollo de jugadores
45%
Prevención de lesiones
10%
Implementación táctica
10%

Eventos recientes

Asistió a una reunión de captación 7d atrás
Asistió a una reunión de captación 14d atrás
Asistió a una reunión de captación 21d atrás
Asistió a una reunión de captación 28d atrás
Cumpleaños 28d atrás
Asistió a una reunión de captación 35d atrás
Asistió a una reunión de captación 49d atrás
Asistió a una reunión de captación 56d atrás

Actualmente siguiendo

91
Jugador Club Estado Habilidad Confianza Observado Última observación Último voto
Oliver Lavale Central Coast Mariners Activo 67 / 82 41% 1 21.06.2027 -
Stefan Colakovski Perth Glory Activo 99 / 84 37% 1 18.01.2027 -
Sandi Elsnik NK Domzale Activo 107 / 92 40% 4 30.12.2026 -
Andreas Gruber DAC Dunajska Streda Activo 108 / 131 40% 2 30.12.2026 -
Dilan Ortíz Ufa Activo 107 / 116 40% 1 28.12.2026 -
Dylan Manickum Auckland City Activo 87 / 91 40% 2 27.12.2026 -
Uroš Đuranović Sliema Wanderers Activo 92 / 112 40% 2 27.12.2026 -
Bruno Gomes Valletta Activo 84 / 103 40% 4 26.12.2026 -
Víctor Campuzano Sydney FC Activo 111 / 117 40% 1 26.12.2026 -
German Onugkha Rodina Activo 143 / 121 40% 5 25.12.2026 -
Jeremiah Okine-Peters Textilschik Activo 78 / 62 40% 1 25.12.2026 -
Jack Vale Spartak Myjava Activo 71 / 85 40% 3 20.12.2026 -
Gabor Gulacsi Haladas Activo 123 / 135 40% 1 17.12.2026 -
Jaime Báez Latina Activo 109 / 128 40% 1 15.12.2026 -
Yeangel Montero Naxxar Lions Activo 108 / 115 40% 1 15.12.2026 -
Michael Cheek Bromley Activo 122 / 93 40% 6 13.12.2026 -
Frédéric Maciel CSKA 1948 Activo 113 / 97 40% 1 11.12.2026 -
Máxuell Maia Gzira United Activo 63 / 83 40% 1 11.12.2026 -
Ciaran McGuckin Segesta Activo 93 / 75 40% 2 10.12.2026 -
Edarlyn Reyes Arsenal Tula Activo 94 / 93 40% 1 10.12.2026 -
Dániel Lukács Puskas Akademia Activo 85 / 116 40% 2 08.12.2026 -
Alex Tanque Valletta Activo 72 / 91 40% 3 06.12.2026 -
Jan Hladík MFK Ruzomberok Activo 109 / 98 40% 1 04.12.2026 -
Miloš Jovičić Zabbar St. Patrick Activo 109 / 113 40% 2 03.12.2026 -
Kosta Just Canterbury United Activo 93 / 95 40% 3 03.12.2026 -
Al Hassan Touré Sydney FC Activo 101 / 115 40% 1 30.11.2026 -
Hernán Rivero Patronato Activo 123 / 103 40% 1 26.11.2026 -
Fernandinho Sliema Wanderers Activo 108 / 83 40% 2 23.11.2026 -
Blaž Kramer NK Celje Activo 96 / 120 40% 1 23.11.2026 -
Ifeanyi Eze Wellington Phoenix Activo 101 / 113 40% 2 21.11.2026 -
Matúš Marcin Podbrezova Activo 97 / 108 40% 1 21.11.2026 -
Takeshi Kanamori Melbourne City Activo 100 / 119 40% 2 19.11.2026 -
János Hahn Paksi Activo 111 / 100 40% 1 19.11.2026 -
Miullen Hibernians Activo 101 / 80 40% 2 18.11.2026 -
Max Svensson Penafiel Activo 94 / 94 40% 1 18.11.2026 -
Magnus Lankhof Dahlby Stabaek Activo 127 / 96 40% 1 17.11.2026 -
István Bognár Activo 131 / 113 40% 1 17.11.2026 -
András Radó Vasas Activo 80 / 95 40% 2 15.11.2026 -
Ji Dong-Won Macarthur FC Activo 114 / 122 40% 1 14.11.2026 -
Ryan De Vries Activo 78 / 80 40% 4 12.11.2026 -
Fredrik Gulbrandsen Lillestrom Activo 131 / 117 40% 1 11.11.2026 -
Samson Tovide Colchester United Activo 106 / 86 40% 1 11.11.2026 -
Kamran Aliev SKA Khabarovsk Activo 81 / 83 40% 1 10.11.2026 -
Franklin Sasere Birkirkara Activo 79 / 83 40% 2 09.11.2026 -
Sonny Cox Exeter City Activo 62 / 97 40% 1 04.11.2026 -
James Kirby Marsaxlokk Activo 76 / 83 40% 2 02.11.2026 -
Róbert Polievka MTK Budapest Activo 130 / 130 40% 1 01.11.2026 -
Lucas Cano Hapoel Haifa Activo 125 / 98 40% 1 28.10.2026 -
Jack Grieves Watford Activo 78 / 103 40% 2 26.10.2026 -
Kristian Eriksen Molde Activo 105 / 117 40% 1 26.10.2026 -
Krisztian Varga Haladas Activo 115 / 124 40% 1 24.10.2026 -
Juan Cruz Zurbriggen San Telmo Activo 99 / 85 40% 1 24.10.2026 -
Jorge Padilla Cherno More Activo 95 / 100 40% 1 23.10.2026 -
Diamanka Senghor Mosta Activo 84 / 75 40% 3 19.10.2026 -
Isaac Matondo Koper Activo 84 / 109 40% 1 18.10.2026 -
Ryan Oné Sheffield United Activo 113 / 102 40% 1 17.10.2026 -
Sam Nombe Milton Keynes Dons Activo 108 / 98 40% 2 15.10.2026 -
Armstrong Oko-Flex Levski Activo 135 / 100 40% 1 15.10.2026 -
Bojan Radulović Huddersfield Town Activo 98 / 96 40% 3 14.10.2026 -
Paul Glatzel Swindon Town Activo 95 / 93 40% 1 14.10.2026 -
Stephen Humphrys Bradford City Activo 114 / 125 40% 3 12.10.2026 -
Ben Nelson Southern United Activo 71 / 83 40% 1 11.10.2026 -
Kenan Dervišagić Floriana Activo 82 / 88 40% 1 09.10.2026 -
Jamie Reid Stevenage Activo 122 / 125 40% 2 04.10.2026 -
Hakeeb Adelakun Doncaster Rovers Activo 83 / 111 40% 1 04.10.2026 -
Macaulay Langstaff Millwall Activo 111 / 106 40% 1 02.10.2026 -
Sergio Castel Persik Activo 124 / 118 40% 1 01.10.2026 -
Louis Appéré Cambridge United Activo 72 / 92 40% 1 30.09.2026 -
James Stamatelopoulos Waitakere United Activo 82 / 68 40% 1 29.09.2026 -
Dane Stamatelopoulos Waitakere United Activo 107 / 101 40% 1 25.09.2026 -
Alejandro Melo Temperley Activo 107 / 124 40% 2 22.09.2026 -
Rhian Brewster Derby County Activo 132 / 127 40% 1 20.09.2026 -
Samuel Kalu Botev Plovdiv Activo 102 / 109 40% 1 19.09.2026 -
Jordan Roberts Stevenage Activo 111 / 125 40% 1 18.09.2026 -
Ammar Ramadan DAC Dunajska Streda Activo 100 / 118 40% 1 17.09.2026 -
Winston Smith Southern United Activo 89 / 77 40% 1 14.09.2026 -
Eric Ramírez Carabobo Activo 130 / 130 40% 1 13.09.2026 -
Marcus Browne AFC Wimbledon Activo 104 / 109 40% 1 06.09.2026 -
Brayan Gil Baltika Activo 122 / 134 40% 1 06.09.2026 -
Matty Stevens AFC Wimbledon Activo 111 / 91 40% 1 05.09.2026 -
Zach Clough Newcastle Jets Activo 98 / 118 40% 1 03.09.2026 -
Cameron Gardner Grimsby Town Activo 92 / 74 40% 1 02.09.2026 -
Jonathan Cañete Portuguesa Activo 118 / 114 40% 1 02.09.2026 -
Daniel Udoh Salford City Activo 88 / 84 40% 1 01.09.2026 -
Winston Payne Hawke's Bay United Activo 96 / 95 40% 1 26.08.2026 -
Rafael Arace Deportivo Tachira Activo 129 / 119 40% 1 26.08.2026 -
Nikos Vergos Newcastle Jets Activo 114 / 102 40% 1 19.08.2026 -
Angus Kilkolly Auckland City Activo 72 / 75 40% 1 16.08.2026 -
Mitchell Duke Macarthur FC Activo 108 / 99 40% 1 11.08.2026 -
Jake Cacace WaiBOP United Activo 68 / 83 40% 1 08.08.2026 -
Yuki Ohashi Blackburn Rovers Activo 113 / 133 40% 1 02.08.2026 -